sensor_id;sensor_type;location;lat;lon;timestamp;P1;durP1;ratioP1;P2;durP2;ratioP2
59474;SDS011;45288;51.136;16.928;2022-10-16T00:04:18;17.40;;;10.20;;
59474;SDS011;45288;51.136;16.928;2022-10-16T00:06:44;14.38;;;9.23;;
59474;SDS011;45288;51.136;16.928;2022-10-16T00:09:10;14.70;;;9.80;;
59474;SDS011;45288;51.136;16.928;2022-10-16T00:11:37;12.98;;;9.13;;
59474;SDS011;45288;51.136;16.928;2022-10-16T00:14:03;13.70;;;8.82;;
59474;SDS011;45288;51.136;16.928;2022-10-16T00:16:29;14.55;;;8.90;;
59474;SDS011;45288;51.136;16.928;2022-10-16T00:18:55;13.98;;;9.40;;
59474;SDS011;45288;51.136;16.928;2022-10-16T00:21:22;15.37;;;9.00;;
59474;SDS011;45288;51.136;16.928;2022-10-16T00:24:07;13.25;;;8.77;;
59474;SDS011;45288;51.136;16.928;2022-10-16T00:26:34;14.60;;;8.88;;
59474;SDS011;45288;51.136;16.928;2022-10-16T00:29:00;13.15;;;8.98;;
59474;SDS011;45288;51.136;16.928;2022-10-16T00:31:26;13.17;;;8.87;;
59474;SDS011;45288;51.136;16.928;2022-10-16T00:33:52;12.27;;;8.52;;
59474;SDS011;45288;51.136;16.928;2022-10-16T00:36:18;13.30;;;8.50;;
59474;SDS011;45288;51.136;16.928;2022-10-16T00:38:44;13.95;;;9.10;;
59474;SDS011;45288;51.136;16.928;2022-10-16T00:41:14;14.85;;;8.20;;
59474;SDS011;45288;51.136;16.928;2022-10-16T00:43:42;12.60;;;8.77;;
59474;SDS011;45288;51.136;16.928;2022-10-16T00:48:48;13.55;;;8.45;;
59474;SDS011;45288;51.136;16.928;2022-10-16T00:51:16;12.23;;;8.15;;
59474;SDS011;45288;51.136;16.928;2022-10-16T00:53:44;14.93;;;8.80;;
59474;SDS011;45288;51.136;16.928;2022-10-16T00:56:09;14.60;;;8.47;;
59474;SDS011;45288;51.136;16.928;2022-10-16T00:58:35;13.70;;;8.27;;
59474;SDS011;45288;51.136;16.928;2022-10-16T01:01:01;13.27;;;8.53;;
59474;SDS011;45288;51.136;16.928;2022-10-16T01:13:53;15.75;;;9.00;;
59474;SDS011;45288;51.136;16.928;2022-10-16T01:16:31;15.70;;;9.30;;
59474;SDS011;45288;51.136;16.928;2022-10-16T01:19:13;13.45;;;9.32;;
59474;SDS011;45288;51.136;16.928;2022-10-16T01:21:40;15.82;;;9.27;;
59474;SDS011;45288;51.136;16.928;2022-10-16T01:24:09;14.60;;;9.33;;
59474;SDS011;45288;51.136;16.928;2022-10-16T01:26:44;12.90;;;8.95;;
59474;SDS011;45288;51.136;16.928;2022-10-16T01:29:20;15.50;;;9.85;;
59474;SDS011;45288;51.136;16.928;2022-10-16T01:31:48;15.33;;;9.97;;
59474;SDS011;45288;51.136;16.928;2022-10-16T01:34:16;13.73;;;9.05;;
59474;SDS011;45288;51.136;16.928;2022-10-16T01:37:32;13.52;;;9.35;;
59474;SDS011;45288;51.136;16.928;2022-10-16T01:39:32;13.05;;;9.43;;
59474;SDS011;45288;51.136;16.928;2022-10-16T01:42:07;14.75;;;10.10;;
59474;SDS011;45288;51.136;16.928;2022-10-16T01:44:34;15.00;;;10.10;;
59474;SDS011;45288;51.136;16.928;2022-10-16T01:47:01;15.23;;;10.63;;
59474;SDS011;45288;51.136;16.928;2022-10-16T01:49:28;13.60;;;9.88;;
59474;SDS011;45288;51.136;16.928;2022-10-16T01:51:55;16.80;;;10.37;;
59474;SDS011;45288;51.136;16.928;2022-10-16T01:54:22;15.93;;;10.23;;
59474;SDS011;45288;51.136;16.928;2022-10-16T01:56:48;16.30;;;9.88;;
59474;SDS011;45288;51.136;16.928;2022-10-16T01:59:16;17.98;;;10.45;;
59474;SDS011;45288;51.136;16.928;2022-10-16T02:01:45;18.38;;;10.82;;
59474;SDS011;45288;51.136;16.928;2022-10-16T02:04:15;17.75;;;10.48;;
59474;SDS011;45288;51.136;16.928;2022-10-16T02:06:41;14.70;;;9.97;;
59474;SDS011;45288;51.136;16.928;2022-10-16T02:09:07;16.05;;;10.30;;
59474;SDS011;45288;51.136;16.928;2022-10-16T02:11:32;18.17;;;10.32;;
59474;SDS011;45288;51.136;16.928;2022-10-16T02:13:59;15.40;;;9.93;;
59474;SDS011;45288;51.136;16.928;2022-10-16T02:16:34;13.65;;;9.80;;
59474;SDS011;45288;51.136;16.928;2022-10-16T02:19:00;17.20;;;10.05;;
59474;SDS011;45288;51.136;16.928;2022-10-16T02:21:27;15.20;;;10.02;;
59474;SDS011;45288;51.136;16.928;2022-10-16T02:23:56;15.25;;;10.23;;
59474;SDS011;45288;51.136;16.928;2022-10-16T02:26:46;14.90;;;9.88;;
59474;SDS011;45288;51.136;16.928;2022-10-16T02:29:10;14.77;;;9.60;;
59474;SDS011;45288;51.136;16.928;2022-10-16T02:31:38;16.05;;;10.10;;
59474;SDS011;45288;51.136;16.928;2022-10-16T02:34:06;15.10;;;9.80;;
59474;SDS011;45288;51.136;16.928;2022-10-16T02:36:32;16.13;;;10.00;;
59474;SDS011;45288;51.136;16.928;2022-10-16T02:38:59;15.67;;;10.10;;
59474;SDS011;45288;51.136;16.928;2022-10-16T02:41:26;16.65;;;9.95;;
59474;SDS011;45288;51.136;16.928;2022-10-16T02:43:52;15.40;;;9.45;;
59474;SDS011;45288;51.136;16.928;2022-10-16T02:46:18;16.67;;;10.20;;
59474;SDS011;45288;51.136;16.928;2022-10-16T02:48:44;16.90;;;10.10;;
59474;SDS011;45288;51.136;16.928;2022-10-16T02:51:10;17.00;;;10.50;;
59474;SDS011;45288;51.136;16.928;2022-10-16T02:53:35;15.67;;;9.73;;
59474;SDS011;45288;51.136;16.928;2022-10-16T02:56:01;17.50;;;9.50;;
59474;SDS011;45288;51.136;16.928;2022-10-16T02:58:27;15.13;;;9.73;;
59474;SDS011;45288;51.136;16.928;2022-10-16T03:00:52;14.30;;;9.60;;
59474;SDS011;45288;51.136;16.928;2022-10-16T03:03:18;16.25;;;10.27;;
59474;SDS011;45288;51.136;16.928;2022-10-16T03:05:44;16.00;;;10.30;;
59474;SDS011;45288;51.136;16.928;2022-10-16T03:08:12;17.30;;;9.75;;
59474;SDS011;45288;51.136;16.928;2022-10-16T03:10:37;17.30;;;10.15;;
59474;SDS011;45288;51.136;16.928;2022-10-16T03:13:03;18.85;;;10.40;;
59474;SDS011;45288;51.136;16.928;2022-10-16T03:15:29;15.48;;;9.90;;
59474;SDS011;45288;51.136;16.928;2022-10-16T03:17:54;17.90;;;10.77;;
59474;SDS011;45288;51.136;16.928;2022-10-16T03:20:20;14.17;;;9.77;;
59474;SDS011;45288;51.136;16.928;2022-10-16T03:22:45;14.60;;;9.57;;
59474;SDS011;45288;51.136;16.928;2022-10-16T03:25:11;16.10;;;10.20;;
59474;SDS011;45288;51.136;16.928;2022-10-16T03:27:37;16.00;;;10.25;;
59474;SDS011;45288;51.136;16.928;2022-10-16T03:30:03;15.50;;;10.47;;
59474;SDS011;45288;51.136;16.928;2022-10-16T03:32:28;14.65;;;9.35;;
59474;SDS011;45288;51.136;16.928;2022-10-16T03:34:54;15.23;;;9.73;;
59474;SDS011;45288;51.136;16.928;2022-10-16T03:37:21;16.20;;;9.93;;
59474;SDS011;45288;51.136;16.928;2022-10-16T03:39:47;12.32;;;9.63;;
59474;SDS011;45288;51.136;16.928;2022-10-16T03:42:12;12.87;;;9.03;;
59474;SDS011;45288;51.136;16.928;2022-10-16T03:44:38;13.00;;;9.43;;
59474;SDS011;45288;51.136;16.928;2022-10-16T03:47:04;12.70;;;9.77;;
59474;SDS011;45288;51.136;16.928;2022-10-16T03:49:29;14.13;;;9.87;;
59474;SDS011;45288;51.136;16.928;2022-10-16T03:51:55;13.35;;;9.63;;
59474;SDS011;45288;51.136;16.928;2022-10-16T03:54:20;14.40;;;9.80;;
59474;SDS011;45288;51.136;16.928;2022-10-16T03:56:47;12.45;;;9.70;;
59474;SDS011;45288;51.136;16.928;2022-10-16T03:59:13;13.10;;;9.43;;
59474;SDS011;45288;51.136;16.928;2022-10-16T04:01:38;13.30;;;9.98;;
59474;SDS011;45288;51.136;16.928;2022-10-16T04:04:04;12.80;;;9.43;;
59474;SDS011;45288;51.136;16.928;2022-10-16T04:06:30;13.13;;;9.88;;
59474;SDS011;45288;51.136;16.928;2022-10-16T04:08:55;13.80;;;9.20;;
59474;SDS011;45288;51.136;16.928;2022-10-16T04:11:22;13.05;;;9.80;;
59474;SDS011;45288;51.136;16.928;2022-10-16T04:13:47;11.53;;;8.97;;
59474;SDS011;45288;51.136;16.928;2022-10-16T04:16:13;13.50;;;9.75;;
59474;SDS011;45288;51.136;16.928;2022-10-16T04:18:39;14.05;;;9.82;;
59474;SDS011;45288;51.136;16.928;2022-10-16T04:21:05;12.97;;;9.70;;
59474;SDS011;45288;51.136;16.928;2022-10-16T04:23:31;12.43;;;9.23;;
59474;SDS011;45288;51.136;16.928;2022-10-16T04:25:56;14.88;;;9.63;;
59474;SDS011;45288;51.136;16.928;2022-10-16T04:28:22;12.90;;;9.90;;
59474;SDS011;45288;51.136;16.928;2022-10-16T04:30:48;14.23;;;10.07;;
59474;SDS011;45288;51.136;16.928;2022-10-16T04:33:13;13.02;;;9.95;;
59474;SDS011;45288;51.136;16.928;2022-10-16T04:35:39;12.02;;;9.35;;
59474;SDS011;45288;51.136;16.928;2022-10-16T04:38:05;13.97;;;10.27;;
59474;SDS011;45288;51.136;16.928;2022-10-16T04:40:30;15.90;;;10.20;;
59474;SDS011;45288;51.136;16.928;2022-10-16T04:43:02;13.32;;;9.65;;
59474;SDS011;45288;51.136;16.928;2022-10-16T04:45:28;12.80;;;9.57;;
59474;SDS011;45288;51.136;16.928;2022-10-16T04:47:56;13.10;;;9.73;;
59474;SDS011;45288;51.136;16.928;2022-10-16T04:50:22;12.80;;;9.52;;
59474;SDS011;45288;51.136;16.928;2022-10-16T04:53:03;12.97;;;9.60;;
59474;SDS011;45288;51.136;16.928;2022-10-16T04:55:29;12.20;;;9.32;;
59474;SDS011;45288;51.136;16.928;2022-10-16T04:57:55;17.70;;;10.37;;
59474;SDS011;45288;51.136;16.928;2022-10-16T05:00:20;15.10;;;10.10;;
59474;SDS011;45288;51.136;16.928;2022-10-16T05:02:47;16.73;;;10.18;;
59474;SDS011;45288;51.136;16.928;2022-10-16T05:05:14;15.93;;;9.97;;
59474;SDS011;45288;51.136;16.928;2022-10-16T05:07:40;14.32;;;10.00;;
59474;SDS011;45288;51.136;16.928;2022-10-16T05:10:06;15.50;;;10.13;;
59474;SDS011;45288;51.136;16.928;2022-10-16T05:12:32;14.80;;;10.30;;
59474;SDS011;45288;51.136;16.928;2022-10-16T05:14:57;16.10;;;9.98;;
59474;SDS011;45288;51.136;16.928;2022-10-16T05:17:24;16.95;;;10.38;;
59474;SDS011;45288;51.136;16.928;2022-10-16T05:19:50;13.77;;;9.60;;
59474;SDS011;45288;51.136;16.928;2022-10-16T05:22:16;16.63;;;10.07;;
59474;SDS011;45288;51.136;16.928;2022-10-16T05:24:41;15.75;;;9.65;;
59474;SDS011;45288;51.136;16.928;2022-10-16T05:27:07;15.70;;;10.00;;
59474;SDS011;45288;51.136;16.928;2022-10-16T05:29:33;15.20;;;10.18;;
59474;SDS011;45288;51.136;16.928;2022-10-16T05:31:59;13.82;;;9.60;;
59474;SDS011;45288;51.136;16.928;2022-10-16T05:34:24;15.20;;;9.70;;
59474;SDS011;45288;51.136;16.928;2022-10-16T05:36:50;12.98;;;8.75;;
59474;SDS011;45288;51.136;16.928;2022-10-16T05:39:15;16.17;;;9.80;;
59474;SDS011;45288;51.136;16.928;2022-10-16T05:41:42;14.93;;;9.43;;
59474;SDS011;45288;51.136;16.928;2022-10-16T05:44:07;14.18;;;9.65;;
59474;SDS011;45288;51.136;16.928;2022-10-16T05:46:33;18.00;;;10.13;;
59474;SDS011;45288;51.136;16.928;2022-10-16T05:48:59;17.53;;;10.20;;
59474;SDS011;45288;51.136;16.928;2022-10-16T05:51:24;16.35;;;10.02;;
59474;SDS011;45288;51.136;16.928;2022-10-16T05:53:50;16.10;;;9.87;;
59474;SDS011;45288;51.136;16.928;2022-10-16T05:56:17;13.45;;;9.27;;
59474;SDS011;45288;51.136;16.928;2022-10-16T05:58:43;14.15;;;9.80;;
59474;SDS011;45288;51.136;16.928;2022-10-16T06:01:10;12.70;;;9.50;;
59474;SDS011;45288;51.136;16.928;2022-10-16T06:03:36;14.55;;;9.77;;
59474;SDS011;45288;51.136;16.928;2022-10-16T06:06:15;27.57;;;13.60;;
59474;SDS011;45288;51.136;16.928;2022-10-16T06:08:42;19.40;;;11.07;;
59474;SDS011;45288;51.136;16.928;2022-10-16T06:11:08;16.98;;;10.60;;
59474;SDS011;45288;51.136;16.928;2022-10-16T06:13:34;15.82;;;10.35;;
59474;SDS011;45288;51.136;16.928;2022-10-16T06:16:00;16.60;;;10.32;;
59474;SDS011;45288;51.136;16.928;2022-10-16T06:18:26;17.27;;;10.47;;
59474;SDS011;45288;51.136;16.928;2022-10-16T06:20:52;16.60;;;10.35;;
59474;SDS011;45288;51.136;16.928;2022-10-16T06:23:18;17.50;;;10.55;;
59474;SDS011;45288;51.136;16.928;2022-10-16T06:25:43;20.67;;;11.17;;
59474;SDS011;45288;51.136;16.928;2022-10-16T06:28:09;13.27;;;9.77;;
59474;SDS011;45288;51.136;16.928;2022-10-16T06:30:34;13.40;;;9.77;;
59474;SDS011;45288;51.136;16.928;2022-10-16T06:33:00;14.63;;;9.57;;
59474;SDS011;45288;51.136;16.928;2022-10-16T06:35:26;13.70;;;9.50;;
59474;SDS011;45288;51.136;16.928;2022-10-16T06:37:52;32.33;;;14.73;;
59474;SDS011;45288;51.136;16.928;2022-10-16T06:40:18;12.40;;;9.07;;
59474;SDS011;45288;51.136;16.928;2022-10-16T06:42:43;14.15;;;8.85;;
59474;SDS011;45288;51.136;16.928;2022-10-16T06:45:09;14.13;;;8.63;;
59474;SDS011;45288;51.136;16.928;2022-10-16T06:47:35;13.68;;;8.63;;
59474;SDS011;45288;51.136;16.928;2022-10-16T06:50:00;12.17;;;8.10;;
59474;SDS011;45288;51.136;16.928;2022-10-16T06:52:29;16.05;;;9.23;;
59474;SDS011;45288;51.136;16.928;2022-10-16T06:54:55;13.32;;;8.50;;
59474;SDS011;45288;51.136;16.928;2022-10-16T06:57:20;12.95;;;8.98;;
59474;SDS011;45288;51.136;16.928;2022-10-16T06:59:46;12.27;;;8.43;;
59474;SDS011;45288;51.136;16.928;2022-10-16T07:02:11;13.77;;;8.40;;
59474;SDS011;45288;51.136;16.928;2022-10-16T07:04:37;11.88;;;7.75;;
59474;SDS011;45288;51.136;16.928;2022-10-16T07:07:02;14.00;;;7.97;;
59474;SDS011;45288;51.136;16.928;2022-10-16T07:09:28;12.63;;;7.83;;
59474;SDS011;45288;51.136;16.928;2022-10-16T07:11:54;10.50;;;7.20;;
59474;SDS011;45288;51.136;16.928;2022-10-16T07:14:20;10.43;;;7.80;;
59474;SDS011;45288;51.136;16.928;2022-10-16T07:16:47;11.43;;;7.80;;
59474;SDS011;45288;51.136;16.928;2022-10-16T07:19:13;10.27;;;7.15;;
59474;SDS011;45288;51.136;16.928;2022-10-16T07:21:40;10.95;;;7.13;;
59474;SDS011;45288;51.136;16.928;2022-10-16T07:24:09;10.07;;;6.80;;
59474;SDS011;45288;51.136;16.928;2022-10-16T07:26:35;8.88;;;6.70;;
59474;SDS011;45288;51.136;16.928;2022-10-16T07:29:01;11.38;;;6.68;;
59474;SDS011;45288;51.136;16.928;2022-10-16T07:31:27;9.20;;;6.57;;
59474;SDS011;45288;51.136;16.928;2022-10-16T07:33:53;9.60;;;6.30;;
59474;SDS011;45288;51.136;16.928;2022-10-16T07:36:19;8.63;;;6.35;;
59474;SDS011;45288;51.136;16.928;2022-10-16T07:38:45;9.60;;;6.53;;
59474;SDS011;45288;51.136;16.928;2022-10-16T07:41:12;8.00;;;6.07;;
59474;SDS011;45288;51.136;16.928;2022-10-16T07:43:38;8.48;;;6.20;;
59474;SDS011;45288;51.136;16.928;2022-10-16T07:46:03;9.10;;;6.30;;
59474;SDS011;45288;51.136;16.928;2022-10-16T07:48:30;8.53;;;6.20;;
59474;SDS011;45288;51.136;16.928;2022-10-16T07:50:57;8.70;;;6.32;;
59474;SDS011;45288;51.136;16.928;2022-10-16T07:53:22;8.15;;;6.20;;
59474;SDS011;45288;51.136;16.928;2022-10-16T07:55:48;7.20;;;5.40;;
59474;SDS011;45288;51.136;16.928;2022-10-16T07:58:13;7.73;;;6.23;;
59474;SDS011;45288;51.136;16.928;2022-10-16T08:00:39;8.80;;;6.18;;
59474;SDS011;45288;51.136;16.928;2022-10-16T08:03:04;8.73;;;6.30;;
59474;SDS011;45288;51.136;16.928;2022-10-16T08:05:31;8.25;;;6.05;;
59474;SDS011;45288;51.136;16.928;2022-10-16T08:07:58;8.30;;;5.85;;
59474;SDS011;45288;51.136;16.928;2022-10-16T08:10:24;8.83;;;6.63;;
59474;SDS011;45288;51.136;16.928;2022-10-16T08:12:51;6.88;;;5.40;;
59474;SDS011;45288;51.136;16.928;2022-10-16T08:15:17;9.68;;;6.13;;
59474;SDS011;45288;51.136;16.928;2022-10-16T08:17:42;9.95;;;5.82;;
59474;SDS011;45288;51.136;16.928;2022-10-16T08:20:08;9.63;;;5.70;;
59474;SDS011;45288;51.136;16.928;2022-10-16T08:22:34;9.23;;;5.95;;
59474;SDS011;45288;51.136;16.928;2022-10-16T08:25:00;9.30;;;6.20;;
59474;SDS011;45288;51.136;16.928;2022-10-16T08:27:30;9.87;;;6.23;;
59474;SDS011;45288;51.136;16.928;2022-10-16T08:29:56;8.77;;;5.80;;
59474;SDS011;45288;51.136;16.928;2022-10-16T08:32:22;7.93;;;5.03;;
59474;SDS011;45288;51.136;16.928;2022-10-16T08:34:48;11.40;;;5.65;;
59474;SDS011;45288;51.136;16.928;2022-10-16T08:37:13;6.97;;;4.73;;
59474;SDS011;45288;51.136;16.928;2022-10-16T08:39:40;7.30;;;4.78;;
59474;SDS011;45288;51.136;16.928;2022-10-16T08:47:13;8.20;;;5.15;;
59474;SDS011;45288;51.136;16.928;2022-10-16T08:49:42;7.45;;;4.88;;
59474;SDS011;45288;51.136;16.928;2022-10-16T08:52:10;7.25;;;4.57;;
59474;SDS011;45288;51.136;16.928;2022-10-16T08:54:38;7.20;;;4.50;;
59474;SDS011;45288;51.136;16.928;2022-10-16T08:57:14;7.70;;;4.50;;
59474;SDS011;45288;51.136;16.928;2022-10-16T08:59:41;6.95;;;4.43;;
59474;SDS011;45288;51.136;16.928;2022-10-16T09:04:59;8.48;;;4.53;;
59474;SDS011;45288;51.136;16.928;2022-10-16T09:07:35;8.23;;;4.85;;
59474;SDS011;45288;51.136;16.928;2022-10-16T09:10:27;8.13;;;4.53;;
59474;SDS011;45288;51.136;16.928;2022-10-16T09:15:21;9.10;;;4.90;;
59474;SDS011;45288;51.136;16.928;2022-10-16T09:22:52;8.02;;;4.53;;
59474;SDS011;45288;51.136;16.928;2022-10-16T09:25:20;7.35;;;4.30;;
59474;SDS011;45288;51.136;16.928;2022-10-16T09:27:46;8.38;;;4.38;;
59474;SDS011;45288;51.136;16.928;2022-10-16T09:30:13;6.85;;;4.20;;
59474;SDS011;45288;51.136;16.928;2022-10-16T09:32:40;7.13;;;4.25;;
59474;SDS011;45288;51.136;16.928;2022-10-16T09:35:11;6.50;;;4.00;;
59474;SDS011;45288;51.136;16.928;2022-10-16T09:37:38;7.80;;;4.57;;
59474;SDS011;45288;51.136;16.928;2022-10-16T09:40:04;8.27;;;4.77;;
59474;SDS011;45288;51.136;16.928;2022-10-16T09:42:31;7.90;;;4.30;;
59474;SDS011;45288;51.136;16.928;2022-10-16T09:44:57;6.82;;;4.25;;
59474;SDS011;45288;51.136;16.928;2022-10-16T09:47:23;5.43;;;3.97;;
59474;SDS011;45288;51.136;16.928;2022-10-16T09:49:56;8.73;;;4.45;;
59474;SDS011;45288;51.136;16.928;2022-10-16T09:52:23;12.23;;;4.72;;
59474;SDS011;45288;51.136;16.928;2022-10-16T09:55:31;6.22;;;4.40;;
59474;SDS011;45288;51.136;16.928;2022-10-16T09:57:48;6.55;;;4.45;;
59474;SDS011;45288;51.136;16.928;2022-10-16T10:00:15;6.43;;;4.20;;
59474;SDS011;45288;51.136;16.928;2022-10-16T10:02:41;10.50;;;5.03;;
59474;SDS011;45288;51.136;16.928;2022-10-16T10:05:17;8.23;;;4.82;;
59474;SDS011;45288;51.136;16.928;2022-10-16T10:07:43;5.35;;;4.18;;
59474;SDS011;45288;51.136;16.928;2022-10-16T10:10:21;6.55;;;4.55;;
59474;SDS011;45288;51.136;16.928;2022-10-16T10:12:47;7.25;;;4.60;;
59474;SDS011;45288;51.136;16.928;2022-10-16T10:15:13;7.95;;;5.03;;
59474;SDS011;45288;51.136;16.928;2022-10-16T10:17:56;7.00;;;4.57;;
59474;SDS011;45288;51.136;16.928;2022-10-16T10:22:51;7.60;;;4.68;;
59474;SDS011;45288;51.136;16.928;2022-10-16T10:30:16;7.50;;;4.35;;
59474;SDS011;45288;51.136;16.928;2022-10-16T10:35:31;8.02;;;4.55;;
59474;SDS011;45288;51.136;16.928;2022-10-16T10:38:03;11.52;;;5.43;;
59474;SDS011;45288;51.136;16.928;2022-10-16T10:46:02;8.15;;;4.32;;
59474;SDS011;45288;51.136;16.928;2022-10-16T10:48:43;7.75;;;4.30;;
59474;SDS011;45288;51.136;16.928;2022-10-16T10:51:39;8.10;;;4.43;;
59474;SDS011;45288;51.136;16.928;2022-10-16T10:54:10;6.47;;;3.80;;
59474;SDS011;45288;51.136;16.928;2022-10-16T11:02:03;7.97;;;4.30;;
59474;SDS011;45288;51.136;16.928;2022-10-16T11:07:00;8.70;;;4.30;;
59474;SDS011;45288;51.136;16.928;2022-10-16T11:11:58;8.80;;;4.20;;
59474;SDS011;45288;51.136;16.928;2022-10-16T11:14:33;6.25;;;3.85;;
59474;SDS011;45288;51.136;16.928;2022-10-16T11:17:13;7.10;;;4.00;;
59474;SDS011;45288;51.136;16.928;2022-10-16T11:19:53;6.47;;;3.70;;
59474;SDS011;45288;51.136;16.928;2022-10-16T11:27:23;4.88;;;3.40;;
59474;SDS011;45288;51.136;16.928;2022-10-16T11:29:58;5.55;;;3.67;;
59474;SDS011;45288;51.136;16.928;2022-10-16T11:32:35;5.53;;;3.45;;
59474;SDS011;45288;51.136;16.928;2022-10-16T11:35:08;9.32;;;4.30;;
59474;SDS011;45288;51.136;16.928;2022-10-16T11:37:38;11.00;;;4.43;;
59474;SDS011;45288;51.136;16.928;2022-10-16T11:40:14;8.77;;;4.15;;
59474;SDS011;45288;51.136;16.928;2022-10-16T11:42:43;12.03;;;4.83;;
59474;SDS011;45288;51.136;16.928;2022-10-16T11:47:45;10.50;;;4.90;;
59474;SDS011;45288;51.136;16.928;2022-10-16T11:50:19;8.35;;;4.75;;
59474;SDS011;45288;51.136;16.928;2022-10-16T11:53:08;10.45;;;5.13;;
59474;SDS011;45288;51.136;16.928;2022-10-16T11:55:37;7.55;;;4.50;;
59474;SDS011;45288;51.136;16.928;2022-10-16T11:58:21;8.02;;;4.43;;
59474;SDS011;45288;51.136;16.928;2022-10-16T12:08:35;8.52;;;4.57;;
59474;SDS011;45288;51.136;16.928;2022-10-16T12:11:36;9.68;;;4.80;;
59474;SDS011;45288;51.136;16.928;2022-10-16T12:14:07;9.93;;;4.77;;
59474;SDS011;45288;51.136;16.928;2022-10-16T12:16:56;6.78;;;4.45;;
59474;SDS011;45288;51.136;16.928;2022-10-16T12:19:22;6.32;;;4.07;;
59474;SDS011;45288;51.136;16.928;2022-10-16T12:21:48;6.38;;;4.30;;
59474;SDS011;45288;51.136;16.928;2022-10-16T12:24:22;7.30;;;4.53;;
59474;SDS011;45288;51.136;16.928;2022-10-16T12:26:52;6.33;;;4.43;;
59474;SDS011;45288;51.136;16.928;2022-10-16T12:29:37;7.45;;;4.68;;
59474;SDS011;45288;51.136;16.928;2022-10-16T12:32:05;8.10;;;4.95;;
59474;SDS011;45288;51.136;16.928;2022-10-16T12:34:34;8.82;;;5.03;;
59474;SDS011;45288;51.136;16.928;2022-10-16T12:37:09;7.10;;;4.90;;
59474;SDS011;45288;51.136;16.928;2022-10-16T12:39:36;8.55;;;5.15;;
59474;SDS011;45288;51.136;16.928;2022-10-16T12:42:18;8.15;;;5.10;;
59474;SDS011;45288;51.136;16.928;2022-10-16T12:44:44;8.55;;;5.10;;
59474;SDS011;45288;51.136;16.928;2022-10-16T12:47:19;7.30;;;5.00;;
59474;SDS011;45288;51.136;16.928;2022-10-16T12:49:49;6.95;;;4.63;;
59474;SDS011;45288;51.136;16.928;2022-10-16T12:54:55;6.50;;;4.72;;
59474;SDS011;45288;51.136;16.928;2022-10-16T13:00:00;9.85;;;5.00;;
59474;SDS011;45288;51.136;16.928;2022-10-16T13:07:58;6.05;;;4.70;;
59474;SDS011;45288;51.136;16.928;2022-10-16T13:13:06;9.68;;;5.55;;
59474;SDS011;45288;51.136;16.928;2022-10-16T13:15:45;6.45;;;5.00;;
59474;SDS011;45288;51.136;16.928;2022-10-16T13:23:29;7.30;;;5.10;;
59474;SDS011;45288;51.136;16.928;2022-10-16T13:28:29;6.68;;;5.03;;
59474;SDS011;45288;51.136;16.928;2022-10-16T13:30:57;6.82;;;4.82;;
59474;SDS011;45288;51.136;16.928;2022-10-16T13:33:31;7.00;;;4.90;;
59474;SDS011;45288;51.136;16.928;2022-10-16T13:35:58;7.13;;;4.60;;
59474;SDS011;45288;51.136;16.928;2022-10-16T13:38:27;6.55;;;4.45;;
59474;SDS011;45288;51.136;16.928;2022-10-16T13:41:13;5.38;;;4.30;;
59474;SDS011;45288;51.136;16.928;2022-10-16T13:43:40;6.73;;;4.50;;
59474;SDS011;45288;51.136;16.928;2022-10-16T13:46:07;7.32;;;4.85;;
59474;SDS011;45288;51.136;16.928;2022-10-16T13:48:37;6.10;;;4.53;;
59474;SDS011;45288;51.136;16.928;2022-10-16T13:53:30;5.95;;;4.55;;
59474;SDS011;45288;51.136;16.928;2022-10-16T13:55:55;6.25;;;4.50;;
59474;SDS011;45288;51.136;16.928;2022-10-16T13:58:22;6.65;;;4.65;;
59474;SDS011;45288;51.136;16.928;2022-10-16T14:00:54;6.93;;;4.63;;
59474;SDS011;45288;51.136;16.928;2022-10-16T14:03:20;6.50;;;4.37;;
59474;SDS011;45288;51.136;16.928;2022-10-16T14:05:55;6.65;;;4.40;;
59474;SDS011;45288;51.136;16.928;2022-10-16T14:08:22;7.90;;;4.70;;
59474;SDS011;45288;51.136;16.928;2022-10-16T14:10:58;5.75;;;4.20;;
59474;SDS011;45288;51.136;16.928;2022-10-16T14:15:54;6.50;;;4.50;;
59474;SDS011;45288;51.136;16.928;2022-10-16T14:18:22;7.27;;;4.53;;
59474;SDS011;45288;51.136;16.928;2022-10-16T14:20:49;7.25;;;4.60;;
59474;SDS011;45288;51.136;16.928;2022-10-16T14:25:44;7.90;;;4.80;;
59474;SDS011;45288;51.136;16.928;2022-10-16T14:28:15;7.60;;;4.90;;
59474;SDS011;45288;51.136;16.928;2022-10-16T14:33:23;7.70;;;4.70;;
59474;SDS011;45288;51.136;16.928;2022-10-16T14:36:03;7.95;;;4.80;;
59474;SDS011;45288;51.136;16.928;2022-10-16T14:38:30;7.85;;;4.90;;
59474;SDS011;45288;51.136;16.928;2022-10-16T14:40:57;5.93;;;4.40;;
59474;SDS011;45288;51.136;16.928;2022-10-16T14:43:26;9.48;;;5.05;;
59474;SDS011;45288;51.136;16.928;2022-10-16T14:45:55;9.02;;;4.95;;
59474;SDS011;45288;51.136;16.928;2022-10-16T14:48:21;7.43;;;4.60;;
59474;SDS011;45288;51.136;16.928;2022-10-16T14:50:47;8.13;;;5.03;;
59474;SDS011;45288;51.136;16.928;2022-10-16T14:53:13;10.07;;;5.30;;
59474;SDS011;45288;51.136;16.928;2022-10-16T14:55:39;11.23;;;5.28;;
59474;SDS011;45288;51.136;16.928;2022-10-16T14:58:05;9.38;;;5.32;;
59474;SDS011;45288;51.136;16.928;2022-10-16T15:00:31;10.40;;;5.28;;
59474;SDS011;45288;51.136;16.928;2022-10-16T15:02:56;9.20;;;5.40;;
59474;SDS011;45288;51.136;16.928;2022-10-16T15:05:26;9.30;;;5.30;;
59474;SDS011;45288;51.136;16.928;2022-10-16T15:07:52;8.27;;;5.10;;
59474;SDS011;45288;51.136;16.928;2022-10-16T15:10:18;8.98;;;5.45;;
59474;SDS011;45288;51.136;16.928;2022-10-16T15:12:45;8.35;;;5.35;;
59474;SDS011;45288;51.136;16.928;2022-10-16T15:15:33;9.38;;;5.47;;
59474;SDS011;45288;51.136;16.928;2022-10-16T15:17:57;17.17;;;8.60;;
59474;SDS011;45288;51.136;16.928;2022-10-16T15:20:26;64.22;;;21.60;;
59474;SDS011;45288;51.136;16.928;2022-10-16T15:22:52;23.83;;;9.48;;
59474;SDS011;45288;51.136;16.928;2022-10-16T15:25:32;11.68;;;6.43;;
59474;SDS011;45288;51.136;16.928;2022-10-16T15:27:58;10.13;;;6.03;;
59474;SDS011;45288;51.136;16.928;2022-10-16T15:30:25;12.30;;;6.82;;
59474;SDS011;45288;51.136;16.928;2022-10-16T15:32:50;19.00;;;9.57;;
59474;SDS011;45288;51.136;16.928;2022-10-16T15:35:16;20.30;;;9.33;;
59474;SDS011;45288;51.136;16.928;2022-10-16T15:37:42;18.10;;;9.13;;
59474;SDS011;45288;51.136;16.928;2022-10-16T15:40:08;16.10;;;8.05;;
59474;SDS011;45288;51.136;16.928;2022-10-16T15:42:34;18.42;;;7.97;;
59474;SDS011;45288;51.136;16.928;2022-10-16T15:44:59;10.97;;;6.07;;
59474;SDS011;45288;51.136;16.928;2022-10-16T15:47:25;12.93;;;7.32;;
59474;SDS011;45288;51.136;16.928;2022-10-16T15:49:51;15.20;;;7.30;;
59474;SDS011;45288;51.136;16.928;2022-10-16T15:52:16;14.03;;;8.13;;
59474;SDS011;45288;51.136;16.928;2022-10-16T15:54:42;14.13;;;7.72;;
59474;SDS011;45288;51.136;16.928;2022-10-16T15:57:08;17.10;;;8.33;;
59474;SDS011;45288;51.136;16.928;2022-10-16T15:59:33;17.00;;;8.50;;
59474;SDS011;45288;51.136;16.928;2022-10-16T16:01:59;17.33;;;8.67;;
59474;SDS011;45288;51.136;16.928;2022-10-16T16:04:25;16.43;;;9.27;;
59474;SDS011;45288;51.136;16.928;2022-10-16T16:06:50;15.27;;;9.07;;
59474;SDS011;45288;51.136;16.928;2022-10-16T16:09:16;15.83;;;9.20;;
59474;SDS011;45288;51.136;16.928;2022-10-16T16:11:42;13.93;;;8.95;;
59474;SDS011;45288;51.136;16.928;2022-10-16T16:14:10;14.80;;;8.90;;